KVYS

Details ICAO KVYS (VYS)
Name ILLINOIS VALLEY RGNL
Region United States
Timezone America/Chicago (UTC-5.0)
Plans Departing 1
Arriving 7
Stats Elevation 654 ft / 199 m (AMSL)
Location 41.351858° -89.153094°
Runways 1
Magnetic Variation 2.687° W
Sunrise 2018-05-22 10:33:11 UTC / 2018-05-22 05:33:11 Local
Sunset 2018-05-23 01:16:16 UTC / 2018-05-22 20:16:16 Local
Advertisement - Login to hide

Runways

ID Width Length Bearing (true) Bearing (mag) Surface Threshold Offset Overrun Length
18 100 ft / 30 m 6,009 ft / 1,832 m 179.58° 182.27° Asphalt 0 ft / 0 m 0 ft / 0 m
36 100 ft / 30 m 6,009 ft / 1,832 m 359.58° 2.27° Asphalt 0 ft / 0 m 0 ft / 0 m

Map

Weather


0- 5 10 15 20 25 30 35+ Temperature / ° C

Clouds and Precipitation
Forecast for 2018-05-23 00:00 UTC. Updated 2 hours ago

Ground ~20,000 ft ~40,000 ft Winds

METAR

KVYS 230135Z AUTO 05006KT 10SM CLR 20/18 A3006 RMK AO2 T02020175

TAF

Not found

Frequencies

Recorded 120.02 MHz AWOS 3
Unicom 123.00 MHz CTAF/UNICOM
Warning: Do not use this data for real-world aviation or navigation. No guarantee of current accuracy is given.